Time;durP1;ratioP1;P1;durP2;ratioP2;P2;SDS_P1;SDS_P2;PMS_P1;PMS_P2;Temp;Humidity;BMP_temperature;BMP_pressure;BME280_temperature;BME280_humidity;BME280_pressure;Samples;Min_cycle;Max_cycle;Signal;HPM_P1;HPM_P2
2023/09/13 00:00:55;;;;;;;2.63;2.43;;;;;;;;;;5093774;28;20292;-71
2023/09/13 00:03:22;;;;;;;2.77;2.57;;;;;;;;;;5112360;28;20243;-71
2023/09/13 00:05:49;;;;;;;4.03;2.60;;;;;;;;;;5113965;28;20203;-71
2023/09/13 00:08:15;;;;;;;7.27;2.73;;;;;;;;;;5107732;28;20196;-71
2023/09/13 00:10:44;;;;;;;2.50;2.30;;;;;;;;;;5106131;28;20231;-71
2023/09/13 00:13:11;;;;;;;2.73;2.53;;;;;;;;;;5093443;28;20219;-71
2023/09/13 00:15:42;;;;;;;3.17;2.70;;;;;;;;;;5093843;28;20227;-71
2023/09/13 00:18:10;;;;;;;6.27;2.60;;;;;;;;;;5099917;28;20654;-71
2023/09/13 00:20:38;;;;;;;2.73;2.53;;;;;;;;;;5113580;28;20203;-72
2023/09/13 00:23:05;;;;;;;4.00;2.43;;;;;;;;;;5106327;28;20200;-71
2023/09/13 00:25:32;;;;;;;3.10;2.50;;;;;;;;;;5107058;28;20290;-72
2023/09/13 00:27:59;;;;;;;4.20;2.67;;;;;;;;;;5105918;28;20203;-71
2023/09/13 00:30:26;;;;;;;3.90;2.30;;;;;;;;;;5094353;28;20239;-71
2023/09/13 00:32:52;;;;;;;5.13;4.00;;;;;;;;;;5103967;28;20257;-71
2023/09/13 00:35:21;;;;;;;2.70;2.50;;;;;;;;;;5106701;28;20289;-71
2023/09/13 00:37:50;;;;;;;2.73;2.53;;;;;;;;;;5101101;28;20199;-71
2023/09/13 00:40:17;;;;;;;2.90;2.37;;;;;;;;;;5097550;28;20219;-71
2023/09/13 00:42:44;;;;;;;3.37;2.60;;;;;;;;;;5092669;28;20204;-71
2023/09/13 00:45:11;;;;;;;4.10;2.90;;;;;;;;;;5107856;28;20207;-71
2023/09/13 00:47:38;;;;;;;5.27;2.47;;;;;;;;;;5113088;28;20199;-72
2023/09/13 00:50:08;;;;;;;6.20;2.73;;;;;;;;;;5097465;28;20224;-72
2023/09/13 00:52:37;;;;;;;9.00;3.30;;;;;;;;;;5092896;28;20265;-72
2023/09/13 00:55:06;;;;;;;2.93;2.33;;;;;;;;;;5096395;28;20225;-71
2023/09/13 00:57:35;;;;;;;2.57;2.37;;;;;;;;;;5102428;28;20589;-71
2023/09/13 01:00:06;;;;;;;9.43;2.70;;;;;;;;;;5106353;28;20258;-71
2023/09/13 01:02:33;;;;;;;3.63;2.60;;;;;;;;;;5092708;28;20575;-71
2023/09/13 01:05:00;;;;;;;4.47;2.53;;;;;;;;;;5092529;28;20203;-71
2023/09/13 01:07:27;;;;;;;5.27;2.77;;;;;;;;;;5092300;28;20687;-71
2023/09/13 01:09:55;;;;;;;2.03;1.90;;;;;;;;;;5097472;28;20235;-71
2023/09/13 01:12:22;;;;;;;3.43;3.13;;;;;;;;;;5100573;28;20235;-71
2023/09/13 01:14:49;;;;;;;3.33;3.03;;;;;;;;;;5106246;28;20231;-71
2023/09/13 01:17:19;;;;;;;5.83;2.70;;;;;;;;;;5091934;28;20262;-71
2023/09/13 01:19:51;;;;;;;2.90;2.63;;;;;;;;;;5092255;28;20200;-71
2023/09/13 01:22:48;;;;;;;2.67;2.47;;;;;;;;;;5092703;28;20207;-71
2023/09/13 01:25:35;;;;;;;4.70;2.47;;;;;;;;;;5067822;28;20583;-71
2023/09/13 01:28:12;;;;;;;2.57;2.37;;;;;;;;;;5112087;28;20662;-71
2023/09/13 01:30:41;;;;;;;3.07;2.83;;;;;;;;;;5095919;28;20285;-71
2023/09/13 01:33:08;;;;;;;4.27;2.73;;;;;;;;;;5101655;28;20208;-72
2023/09/13 01:35:34;;;;;;;2.60;2.40;;;;;;;;;;5095744;28;20246;-72
2023/09/13 01:38:01;;;;;;;2.90;2.37;;;;;;;;;;5101357;28;20207;-72
2023/09/13 01:40:31;;;;;;;2.40;2.30;;;;;;;;;;5108525;28;20207;-71
2023/09/13 01:43:00;;;;;;;2.83;2.53;;;;;;;;;;5091368;28;20204;-71
2023/09/13 01:45:28;;;;;;;2.53;2.33;;;;;;;;;;5109706;28;20619;-71
2023/09/13 01:47:56;;;;;;;3.37;2.87;;;;;;;;;;5099667;28;20204;-71
2023/09/13 01:50:23;;;;;;;3.63;2.70;;;;;;;;;;5091634;28;20312;-71
2023/09/13 01:52:49;;;;;;;2.87;2.57;;;;;;;;;;5103385;28;20206;-71
2023/09/13 01:55:16;;;;;;;3.60;2.90;;;;;;;;;;5092919;28;20258;-72
2023/09/13 01:57:43;;;;;;;2.73;2.53;;;;;;;;;;5091020;28;20207;-71
2023/09/13 02:00:11;;;;;;;2.47;2.27;;;;;;;;;;5110415;28;20249;-71
2023/09/13 02:02:38;;;;;;;3.97;2.83;;;;;;;;;;5099236;28;20294;-71
2023/09/13 02:05:07;;;;;;;4.73;2.53;;;;;;;;;;5104875;28;20207;-71
2023/09/13 02:07:34;;;;;;;2.63;2.43;;;;;;;;;;5091020;28;20586;-71
2023/09/13 02:10:01;;;;;;;3.80;2.70;;;;;;;;;;5098011;28;20559;-71
2023/09/13 02:12:27;;;;;;;4.90;2.80;;;;;;;;;;5097517;28;20232;-71
2023/09/13 02:14:54;;;;;;;3.17;2.87;;;;;;;;;;5091583;28;20219;-71
2023/09/13 02:17:21;;;;;;;3.00;2.70;;;;;;;;;;5091394;28;20204;-71
2023/09/13 02:19:49;;;;;;;2.70;2.50;;;;;;;;;;5104325;28;20203;-71
2023/09/13 02:22:17;;;;;;;2.90;2.70;;;;;;;;;;5090808;28;20196;-72
2023/09/13 02:24:44;;;;;;;4.13;2.53;;;;;;;;;;5111248;28;20203;-71
2023/09/13 02:27:11;;;;;;;3.63;2.73;;;;;;;;;;5097487;28;20200;-71
2023/09/13 02:29:38;;;;;;;3.33;3.10;;;;;;;;;;5111431;28;20697;-71
2023/09/13 02:32:05;;;;;;;2.97;2.67;;;;;;;;;;5096462;28;20265;-71
2023/09/13 02:34:34;;;;;;;4.50;2.90;;;;;;;;;;5099334;28;20213;-71
2023/09/13 02:37:01;;;;;;;3.20;2.90;;;;;;;;;;5109144;28;20644;-71
2023/09/13 02:39:33;;;;;;;3.30;3.00;;;;;;;;;;5090943;28;20204;-71
2023/09/13 02:42:00;;;;;;;3.17;2.87;;;;;;;;;;5107461;28;20198;-71
2023/09/13 02:44:27;;;;;;;4.63;2.87;;;;;;;;;;5111041;28;20703;-71
2023/09/13 02:46:54;;;;;;;5.93;3.33;;;;;;;;;;5111052;28;20203;-71
2023/09/13 02:49:21;;;;;;;5.67;2.80;;;;;;;;;;5100477;28;20676;-72
2023/09/13 02:51:48;;;;;;;3.33;3.03;;;;;;;;;;5094111;28;20227;-72
2023/09/13 02:54:15;;;;;;;4.10;2.87;;;;;;;;;;5110793;28;20682;-71
2023/09/13 02:56:43;;;;;;;4.83;3.83;;;;;;;;;;5109692;28;20242;-71
2023/09/13 02:59:09;;;;;;;3.57;3.27;;;;;;;;;;5102114;28;20268;-71
2023/09/13 03:01:36;;;;;;;5.10;2.60;;;;;;;;;;5107613;28;20745;-72
2023/09/13 03:04:03;;;;;;;4.23;2.80;;;;;;;;;;5097561;28;20595;-71
2023/09/13 03:06:30;;;;;;;3.20;3.00;;;;;;;;;;5106072;28;20217;-71
2023/09/13 03:08:57;;;;;;;3.03;2.80;;;;;;;;;;5115253;28;20206;-71
2023/09/13 03:11:24;;;;;;;4.13;3.47;;;;;;;;;;5114885;28;20242;-72
2023/09/13 03:13:53;;;;;;;3.27;2.97;;;;;;;;;;5096252;28;20226;-71
2023/09/13 03:16:20;;;;;;;3.20;2.90;;;;;;;;;;5106862;28;20202;-72
2023/09/13 03:18:49;;;;;;;3.23;2.73;;;;;;;;;;5108651;28;20210;-71
2023/09/13 03:21:17;;;;;;;4.73;3.47;;;;;;;;;;5099343;28;20237;-71
2023/09/13 03:23:46;;;;;;;3.10;2.80;;;;;;;;;;5114323;28;20196;-72
2023/09/13 03:26:14;;;;;;;3.13;2.87;;;;;;;;;;5094822;28;20203;-71
2023/09/13 03:28:41;;;;;;;3.57;2.70;;;;;;;;;;5107869;28;20214;-72
2023/09/13 03:31:12;;;;;;;6.80;2.90;;;;;;;;;;5101120;28;20233;-72
2023/09/13 03:33:40;;;;;;;3.80;2.70;;;;;;;;;;5114186;28;20685;-72
2023/09/13 03:36:07;;;;;;;3.63;3.33;;;;;;;;;;5114202;28;20326;-73
2023/09/13 03:38:34;;;;;;;4.07;3.67;;;;;;;;;;5099680;28;20281;-72
2023/09/13 03:41:03;;;;;;;4.17;3.10;;;;;;;;;;5101863;28;20211;-72
2023/09/13 03:43:29;;;;;;;3.50;3.00;;;;;;;;;;5100538;28;20211;-72
2023/09/13 03:45:56;;;;;;;4.60;3.30;;;;;;;;;;5114350;28;20206;-72
2023/09/13 03:48:24;;;;;;;3.20;2.90;;;;;;;;;;5113072;28;20201;-72
2023/09/13 03:50:51;;;;;;;5.47;3.67;;;;;;;;;;5106120;28;20603;-72
2023/09/13 03:53:21;;;;;;;3.97;2.60;;;;;;;;;;5094064;28;20295;-72
2023/09/13 03:55:47;;;;;;;4.20;3.73;;;;;;;;;;5094361;28;20742;-72
2023/09/13 03:58:14;;;;;;;3.33;3.00;;;;;;;;;;5095577;28;20269;-75
2023/09/13 04:00:41;;;;;;;7.40;3.57;;;;;;;;;;5108641;28;20216;-72
2023/09/13 04:03:08;;;;;;;3.10;2.80;;;;;;;;;;5104599;28;20259;-73
2023/09/13 04:05:37;;;;;;;3.23;3.03;;;;;;;;;;5096667;28;20209;-72
2023/09/13 04:08:04;;;;;;;3.10;2.80;;;;;;;;;;5113582;28;20655;-72
2023/09/13 04:10:31;;;;;;;3.77;3.00;;;;;;;;;;5097513;28;20269;-72
2023/09/13 04:12:57;;;;;;;3.20;2.60;;;;;;;;;;5103361;28;20624;-72
2023/09/13 04:15:24;;;;;;;3.33;3.03;;;;;;;;;;5096849;28;20756;-73
2023/09/13 04:17:52;;;;;;;3.33;3.00;;;;;;;;;;5102477;28;20209;-72
2023/09/13 04:20:20;;;;;;;4.40;2.90;;;;;;;;;;5100447;28;20229;-73
2023/09/13 04:22:48;;;;;;;3.33;3.03;;;;;;;;;;5097408;28;20202;-72
2023/09/13 04:25:15;;;;;;;4.60;2.90;;;;;;;;;;5113667;28;20216;-73
2023/09/13 04:27:43;;;;;;;4.03;3.70;;;;;;;;;;5099763;28;20198;-73
2023/09/13 04:30:11;;;;;;;6.03;3.20;;;;;;;;;;5100530;28;20214;-73
2023/09/13 04:32:38;;;;;;;3.53;3.23;;;;;;;;;;5098761;28;20234;-73
2023/09/13 04:35:06;;;;;;;4.27;3.87;;;;;;;;;;5113007;28;20241;-73
2023/09/13 04:37:33;;;;;;;4.90;3.10;;;;;;;;;;5093217;28;20207;-74
2023/09/13 04:40:04;;;;;;;6.23;3.20;;;;;;;;;;5093285;28;20737;-75
2023/09/13 04:42:31;;;;;;;5.03;3.23;;;;;;;;;;5100757;28;20237;-75
2023/09/13 04:44:57;;;;;;;3.53;3.23;;;;;;;;;;5099186;28;20207;-75
2023/09/13 04:47:24;;;;;;;3.90;3.20;;;;;;;;;;5105706;28;20213;-75
2023/09/13 04:49:51;;;;;;;3.63;3.23;;;;;;;;;;5105596;28;20229;-75
2023/09/13 04:52:21;;;;;;;5.23;3.00;;;;;;;;;;5091579;28;20257;-75
2023/09/13 04:54:47;;;;;;;3.63;3.13;;;;;;;;;;5091716;28;20268;-75
2023/09/13 04:57:15;;;;;;;8.83;3.97;;;;;;;;;;5091949;28;20207;-75
2023/09/13 04:59:43;;;;;;;7.97;3.63;;;;;;;;;;5105462;28;20203;-75
2023/09/13 05:02:11;;;;;;;4.67;3.20;;;;;;;;;;5100613;28;20203;-75
2023/09/13 05:04:38;;;;;;;4.90;3.13;;;;;;;;;;5098463;28;20294;-75
2023/09/13 05:07:05;;;;;;;3.10;2.90;;;;;;;;;;5102994;28;20211;-75
2023/09/13 05:09:32;;;;;;;3.60;3.30;;;;;;;;;;5092139;28;20204;-75
2023/09/13 05:11:59;;;;;;;4.70;3.03;;;;;;;;;;5102080;28;20237;-75
2023/09/13 05:14:27;;;;;;;3.33;2.90;;;;;;;;;;5095665;28;20752;-75
2023/09/13 05:16:54;;;;;;;3.63;2.97;;;;;;;;;;5091740;28;20204;-75
2023/09/13 05:19:21;;;;;;;6.63;3.60;;;;;;;;;;5092262;28;20197;-75
2023/09/13 05:21:48;;;;;;;3.50;2.97;;;;;;;;;;5102613;28;20207;-75
2023/09/13 05:24:15;;;;;;;5.27;3.47;;;;;;;;;;5099014;28;20195;-75
2023/09/13 05:26:41;;;;;;;3.37;3.07;;;;;;;;;;5101800;28;20204;-75
2023/09/13 05:29:08;;;;;;;4.10;3.17;;;;;;;;;;5092324;28;20254;-75
2023/09/13 05:31:37;;;;;;;5.63;2.80;;;;;;;;;;5092247;28;20224;-76
2023/09/13 05:34:03;;;;;;;5.30;3.50;;;;;;;;;;5091903;28;20204;-75
2023/09/13 05:36:30;;;;;;;8.40;3.07;;;;;;;;;;5091659;28;20596;-75
2023/09/13 05:38:57;;;;;;;4.17;3.40;;;;;;;;;;5105256;28;20211;-75
2023/09/13 05:41:24;;;;;;;7.93;3.60;;;;;;;;;;5091518;28;20204;-75
2023/09/13 05:43:51;;;;;;;4.47;3.20;;;;;;;;;;5109532;28;20191;-75
2023/09/13 05:46:17;;;;;;;4.23;2.70;;;;;;;;;;5111991;28;20207;-75
2023/09/13 05:48:45;;;;;;;4.17;3.27;;;;;;;;;;5106776;28;20211;-75
2023/09/13 05:51:12;;;;;;;4.73;3.20;;;;;;;;;;5091487;28;20706;-75
2023/09/13 05:53:39;;;;;;;3.73;3.43;;;;;;;;;;5097053;28;20200;-75
2023/09/13 05:56:06;;;;;;;6.13;3.60;;;;;;;;;;5099144;28;20200;-75
2023/09/13 05:58:33;;;;;;;3.77;3.37;;;;;;;;;;5091656;28;20196;-75
2023/09/13 06:01:08;;;;;;;4.27;3.60;;;;;;;;;;5091319;28;20208;-75
2023/09/13 06:03:34;;;;;;;3.40;3.10;;;;;;;;;;5098304;28;20624;-75
2023/09/13 06:06:05;;;;;;;6.87;3.30;;;;;;;;;;5097155;28;20196;-75
2023/09/13 06:08:32;;;;;;;3.90;3.50;;;;;;;;;;5099782;28;20210;-75
2023/09/13 06:10:59;;;;;;;5.03;3.23;;;;;;;;;;5097019;28;20318;-75
2023/09/13 06:13:26;;;;;;;3.40;3.10;;;;;;;;;;5103198;28;20207;-75
2023/09/13 06:15:52;;;;;;;10.27;5.30;;;;;;;;;;5104739;28;20199;-75
2023/09/13 06:18:19;;;;;;;4.27;3.40;;;;;;;;;;5091014;28;20207;-75
2023/09/13 06:20:46;;;;;;;3.37;2.90;;;;;;;;;;5092582;28;20274;-75
2023/09/13 06:23:34;;;;;;;3.17;2.87;;;;;;;;;;5103218;28;20588;-75
2023/09/13 06:26:01;;;;;;;4.47;2.60;;;;;;;;;;5103952;28;20287;-75
2023/09/13 06:28:28;;;;;;;5.03;3.20;;;;;;;;;;5091115;28;20196;-75
2023/09/13 06:30:55;;;;;;;6.67;3.13;;;;;;;;;;5089847;28;20237;-75
2023/09/13 06:33:22;;;;;;;5.83;2.77;;;;;;;;;;5102995;28;20231;-75
2023/09/13 06:35:49;;;;;;;2.67;2.47;;;;;;;;;;5110972;28;20203;-75
2023/09/13 06:38:18;;;;;;;5.50;4.70;;;;;;;;;;5098965;28;20647;-75
2023/09/13 06:40:47;;;;;;;3.17;2.97;;;;;;;;;;5104007;28;20200;-75
2023/09/13 06:43:14;;;;;;;3.50;3.20;;;;;;;;;;5104346;28;20210;-75
2023/09/13 06:45:41;;;;;;;4.27;2.83;;;;;;;;;;5090841;28;20208;-75
2023/09/13 06:48:08;;;;;;;3.87;3.27;;;;;;;;;;5090869;28;20239;-75
2023/09/13 06:50:35;;;;;;;4.33;2.90;;;;;;;;;;5090683;28;20211;-75
2023/09/13 06:53:02;;;;;;;6.27;3.17;;;;;;;;;;5104124;28;20219;-75
2023/09/13 06:55:31;;;;;;;3.60;3.30;;;;;;;;;;5098404;28;20566;-75
2023/09/13 06:57:57;;;;;;;2.90;2.53;;;;;;;;;;5109026;28;20754;-75
2023/09/13 07:00:24;;;;;;;3.60;3.30;;;;;;;;;;5090845;28;20208;-75
2023/09/13 07:02:51;;;;;;;3.77;2.97;;;;;;;;;;5090419;28;20210;-75
2023/09/13 07:05:20;;;;;;;7.00;4.03;;;;;;;;;;5090987;28;20200;-75
2023/09/13 07:07:47;;;;;;;3.37;3.07;;;;;;;;;;5090330;28;20204;-75
2023/09/13 07:10:14;;;;;;;4.53;3.40;;;;;;;;;;5090379;28;20662;-75
2023/09/13 07:12:42;;;;;;;3.70;2.97;;;;;;;;;;5090889;28;20235;-75
2023/09/13 07:15:09;;;;;;;4.60;3.43;;;;;;;;;;5090869;28;20193;-75
2023/09/13 07:17:36;;;;;;;2.87;2.63;;;;;;;;;;5106997;28;20192;-75
2023/09/13 07:20:04;;;;;;;3.00;2.77;;;;;;;;;;5102220;28;20196;-75
2023/09/13 07:22:31;;;;;;;8.23;3.40;;;;;;;;;;5090412;28;20200;-75
2023/09/13 07:24:58;;;;;;;3.43;2.73;;;;;;;;;;5090402;28;20682;-75
2023/09/13 07:27:25;;;;;;;3.53;3.23;;;;;;;;;;5092786;28;20263;-75
2023/09/13 07:29:53;;;;;;;3.83;3.37;;;;;;;;;;5110905;28;20245;-75
2023/09/13 07:32:21;;;;;;;4.47;3.13;;;;;;;;;;5096620;28;20223;-75
2023/09/13 07:34:48;;;;;;;4.90;3.13;;;;;;;;;;5110791;28;20211;-75
2023/09/13 07:37:15;;;;;;;3.37;3.07;;;;;;;;;;5110638;28;20263;-75
2023/09/13 07:39:42;;;;;;;3.30;3.00;;;;;;;;;;5110522;28;20203;-75
2023/09/13 07:42:11;;;;;;;3.63;3.27;;;;;;;;;;5094864;28;20277;-75
2023/09/13 07:44:37;;;;;;;7.13;3.20;;;;;;;;;;5094033;28;20215;-75
2023/09/13 07:47:06;;;;;;;3.37;3.10;;;;;;;;;;5097929;28;20687;-75
2023/09/13 07:49:33;;;;;;;3.43;3.10;;;;;;;;;;5102687;28;20204;-75
2023/09/13 07:52:00;;;;;;;3.13;2.77;;;;;;;;;;5093420;28;20220;-76
2023/09/13 07:54:27;;;;;;;3.33;2.93;;;;;;;;;;5105984;28;20206;-75
2023/09/13 07:56:54;;;;;;;3.97;3.43;;;;;;;;;;5094953;28;20196;-75
2023/09/13 07:59:20;;;;;;;3.87;3.07;;;;;;;;;;5093565;28;20200;-75
2023/09/13 08:01:48;;;;;;;3.73;3.33;;;;;;;;;;5093542;28;20204;-75
2023/09/13 08:04:16;;;;;;;4.20;3.10;;;;;;;;;;5106147;28;20192;-75
2023/09/13 08:06:42;;;;;;;2.90;2.70;;;;;;;;;;5094422;28;20246;-75
2023/09/13 08:09:09;;;;;;;6.57;2.97;;;;;;;;;;5093839;28;20204;-75
2023/09/13 08:11:36;;;;;;;3.40;3.10;;;;;;;;;;5092865;28;20229;-75
2023/09/13 08:14:03;;;;;;;5.40;3.10;;;;;;;;;;5107043;28;20203;-75
2023/09/13 08:16:30;;;;;;;5.07;3.33;;;;;;;;;;5113218;28;20294;-75
2023/09/13 08:18:56;;;;;;;3.43;3.13;;;;;;;;;;5100185;28;20212;-75
2023/09/13 08:21:25;;;;;;;9.47;3.60;;;;;;;;;;5113529;28;20618;-75
2023/09/13 08:23:51;;;;;;;6.00;3.63;;;;;;;;;;5099683;28;20265;-75
2023/09/13 08:26:18;;;;;;;8.60;3.60;;;;;;;;;;5100396;28;20208;-76
2023/09/13 08:28:45;;;;;;;4.50;3.17;;;;;;;;;;5099922;28;20211;-75
2023/09/13 08:31:12;;;;;;;4.87;3.80;;;;;;;;;;5100895;28;20204;-75
2023/09/13 08:33:39;;;;;;;3.93;3.10;;;;;;;;;;5099423;28;20231;-76
2023/09/13 08:36:07;;;;;;;4.00;3.53;;;;;;;;;;5113131;28;20196;-75
2023/09/13 08:38:35;;;;;;;3.47;3.17;;;;;;;;;;5100083;28;20200;-75
2023/09/13 08:41:03;;;;;;;5.27;3.70;;;;;;;;;;5105203;28;20207;-75
2023/09/13 08:43:29;;;;;;;3.07;2.87;;;;;;;;;;5092815;28;20201;-76
2023/09/13 08:45:56;;;;;;;3.60;2.80;;;;;;;;;;5092792;28;20311;-75
2023/09/13 08:48:23;;;;;;;3.90;3.13;;;;;;;;;;5092969;28;20231;-76
2023/09/13 08:50:50;;;;;;;3.77;2.60;;;;;;;;;;5092559;28;20211;-75
2023/09/13 08:53:17;;;;;;;5.88;3.17;;;;;;;;;;5105316;28;20226;-75
2023/09/13 08:55:46;;;;;;;3.70;2.63;;;;;;;;;;5101782;28;20249;-76
2023/09/13 08:58:13;;;;;;;3.47;2.53;;;;;;;;;;5096283;28;20208;-75
2023/09/13 09:00:43;;;;;;;4.40;2.65;;;;;;;;;;5092962;28;20589;-75
2023/09/13 09:03:12;;;;;;;3.07;2.87;;;;;;;;;;5095851;28;20700;-76
2023/09/13 09:05:41;;;;;;;6.30;2.75;;;;;;;;;;5101653;28;20208;-75
2023/09/13 09:08:10;;;;;;;5.18;2.70;;;;;;;;;;5092659;28;20196;-75
2023/09/13 09:10:37;;;;;;;3.90;3.25;;;;;;;;;;5092599;28;20211;-75
2023/09/13 09:13:05;;;;;;;3.55;2.70;;;;;;;;;;5105604;28;20211;-75
2023/09/13 09:15:33;;;;;;;5.30;2.88;;;;;;;;;;5104651;28;20199;-75
2023/09/13 09:18:03;;;;;;;5.10;3.55;;;;;;;;;;5093434;28;20202;-75
2023/09/13 09:20:31;;;;;;;7.75;3.92;;;;;;;;;;5092285;28;20200;-75
2023/09/13 09:22:58;;;;;;;3.30;3.08;;;;;;;;;;5105726;28;20201;-76
2023/09/13 09:25:26;;;;;;;3.53;3.22;;;;;;;;;;5091899;28;20682;-76
2023/09/13 09:27:53;;;;;;;5.10;3.03;;;;;;;;;;5098766;28;20219;-76
2023/09/13 09:30:31;;;;;;;4.28;3.35;;;;;;;;;;5098800;28;20200;-76
2023/09/13 09:33:03;;;;;;;7.22;3.20;;;;;;;;;;5103244;28;20228;-75
2023/09/13 09:35:30;;;;;;;4.05;3.30;;;;;;;;;;5092068;28;20212;-76
2023/09/13 09:37:57;;;;;;;5.00;3.10;;;;;;;;;;5092072;28;20212;-75
2023/09/13 09:40:24;;;;;;;3.47;3.17;;;;;;;;;;5105489;28;20193;-76
2023/09/13 09:42:54;;;;;;;3.97;3.40;;;;;;;;;;5091733;28;20204;-75
2023/09/13 09:45:23;;;;;;;3.13;2.88;;;;;;;;;;5092020;28;20200;-75
2023/09/13 09:47:51;;;;;;;5.97;4.38;;;;;;;;;;5091943;28;20204;-75
2023/09/13 09:50:17;;;;;;;3.58;3.28;;;;;;;;;;5096243;28;20645;-75
2023/09/13 09:52:49;;;;;;;5.35;3.65;;;;;;;;;;5111734;28;20223;-75
2023/09/13 09:55:21;;;;;;;6.32;3.13;;;;;;;;;;5092578;28;20690;-75
2023/09/13 09:57:49;;;;;;;5.70;3.30;;;;;;;;;;5104813;28;20199;-75
2023/09/13 10:00:16;;;;;;;6.55;3.80;;;;;;;;;;5091686;28;20246;-76
2023/09/13 10:02:46;;;;;;;4.22;3.33;;;;;;;;;;5090702;28;20757;-75
2023/09/13 10:05:16;;;;;;;5.45;3.83;;;;;;;;;;5098624;28;20594;-75
2023/09/13 10:07:50;;;;;;;3.10;2.80;;;;;;;;;;5096744;28;20197;-75
2023/09/13 10:10:28;;;;;;;4.45;3.08;;;;;;;;;;5100340;28;20193;-75
2023/09/13 10:12:55;;;;;;;4.07;3.42;;;;;;;;;;5097813;28;20215;-75
2023/09/13 10:15:21;;;;;;;3.67;3.20;;;;;;;;;;5101038;28;20560;-75
2023/09/13 10:17:50;;;;;;;6.25;3.53;;;;;;;;;;5104801;28;20238;-75
2023/09/13 10:20:18;;;;;;;6.05;3.40;;;;;;;;;;5091519;28;20627;-75
2023/09/13 10:22:47;;;;;;;6.15;3.70;;;;;;;;;;5091089;28;20204;-75
2023/09/13 10:25:15;;;;;;;7.18;3.97;;;;;;;;;;5091342;28;20618;-75
2023/09/13 10:27:44;;;;;;;4.90;4.50;;;;;;;;;;5109698;28;20203;-75
2023/09/13 10:30:12;;;;;;;5.28;3.45;;;;;;;;;;5111419;28;20200;-75
2023/09/13 10:32:45;;;;;;;16.42;9.25;;;;;;;;;;5104948;28;20208;-75
2023/09/13 10:35:15;;;;;;;25.20;14.80;;;;;;;;;;5091445;28;20624;-75
2023/09/13 10:37:48;;;;;;;45.65;22.50;;;;;;;;;;5103028;28;20211;-75
2023/09/13 10:40:20;;;;;;;36.75;21.27;;;;;;;;;;5104336;28;20643;-75
2023/09/13 10:42:47;;;;;;;6.45;3.80;;;;;;;;;;5091047;28;20640;-75
2023/09/13 10:45:18;;;;;;;20.10;9.32;;;;;;;;;;5103850;28;20208;-75
2023/09/13 10:47:46;;;;;;;3.88;3.00;;;;;;;;;;5090723;28;20697;-75
2023/09/13 10:50:15;;;;;;;4.57;3.85;;;;;;;;;;5094048;28;20203;-75
2023/09/13 10:52:43;;;;;;;3.80;3.15;;;;;;;;;;5100032;28;20636;-75
2023/09/13 10:55:10;;;;;;;4.75;2.88;;;;;;;;;;5091116;28;20208;-75
2023/09/13 10:57:36;;;;;;;4.47;3.70;;;;;;;;;;5090715;28;20200;-75
2023/09/13 11:00:08;;;;;;;5.03;3.63;;;;;;;;;;5104193;28;20604;-75
2023/09/13 11:02:35;;;;;;;5.10;3.55;;;;;;;;;;5090358;28;20595;-75
2023/09/13 11:05:03;;;;;;;3.38;3.05;;;;;;;;;;5096400;28;20211;-75
2023/09/13 11:07:33;;;;;;;3.58;3.10;;;;;;;;;;5111145;28;20229;-75
2023/09/13 11:10:04;;;;;;;4.00;3.20;;;;;;;;;;5110522;28;20572;-75
2023/09/13 11:12:35;;;;;;;8.60;3.20;;;;;;;;;;5109994;28;20227;-75
2023/09/13 11:15:12;;;;;;;5.43;3.30;;;;;;;;;;5090923;28;20254;-75
2023/09/13 11:17:40;;;;;;;4.85;3.13;;;;;;;;;;5093390;28;20592;-75
2023/09/13 11:20:24;;;;;;;3.35;3.05;;;;;;;;;;5095183;28;20200;-75
2023/09/13 11:23:05;;;;;;;5.53;3.50;;;;;;;;;;5099055;28;20249;-75
2023/09/13 11:25:34;;;;;;;5.70;3.25;;;;;;;;;;5101305;28;20215;-75
2023/09/13 11:28:04;;;;;;;7.38;3.40;;;;;;;;;;5107215;28;20694;-75
2023/09/13 11:30:47;;;;;;;9.80;4.50;;;;;;;;;;5095490;28;20215;-75
2023/09/13 11:33:14;;;;;;;8.45;3.58;;;;;;;;;;5104360;28;20655;-75
2023/09/13 11:35:43;;;;;;;5.03;3.58;;;;;;;;;;5094231;28;20205;-75
2023/09/13 11:38:11;;;;;;;6.25;4.00;;;;;;;;;;5104465;28;20196;-75
2023/09/13 11:40:38;;;;;;;6.63;3.22;;;;;;;;;;5100675;28;20694;-75
2023/09/13 11:43:05;;;;;;;6.00;3.40;;;;;;;;;;5114386;28;20203;-75
2023/09/13 11:45:35;;;;;;;6.15;2.95;;;;;;;;;;5095797;28;20197;-75
2023/09/13 11:48:04;;;;;;;2.95;2.67;;;;;;;;;;5106057;28;20204;-75
2023/09/13 11:50:43;;;;;;;9.50;3.60;;;;;;;;;;5094962;28;20208;-75
2023/09/13 11:53:15;;;;;;;13.50;3.80;;;;;;;;;;5108286;28;20233;-75
2023/09/13 11:55:44;;;;;;;8.90;4.03;;;;;;;;;;5105586;28;20273;-75
2023/09/13 11:58:15;;;;;;;7.50;3.35;;;;;;;;;;5107367;28;20257;-75
2023/09/13 12:00:42;;;;;;;7.25;3.20;;;;;;;;;;5093914;28;20273;-75
2023/09/13 12:03:09;;;;;;;3.55;2.85;;;;;;;;;;5093363;28;20677;-75
2023/09/13 12:05:38;;;;;;;8.43;3.97;;;;;;;;;;5093635;28;20207;-75
2023/09/13 12:08:20;;;;;;;5.65;3.33;;;;;;;;;;5107661;28;20228;-75
2023/09/13 12:10:47;;;;;;;9.57;3.50;;;;;;;;;;5105931;28;20230;-75
2023/09/13 12:13:14;;;;;;;6.20;3.53;;;;;;;;;;5094268;28;20277;-75
2023/09/13 12:15:59;;;;;;;8.13;4.53;;;;;;;;;;5106922;28;20633;-75
2023/09/13 12:18:26;;;;;;;4.45;2.95;;;;;;;;;;5093608;28;20224;-75
2023/09/13 12:20:56;;;;;;;11.70;3.75;;;;;;;;;;5095344;28;20219;-75
2023/09/13 12:23:25;;;;;;;8.50;3.53;;;;;;;;;;5104233;28;20200;-74
2023/09/13 12:25:52;;;;;;;11.85;3.58;;;;;;;;;;5106869;28;20201;-75
2023/09/13 12:28:28;;;;;;;8.27;4.22;;;;;;;;;;5102047;28;20210;-75
2023/09/13 12:30:56;;;;;;;9.60;3.83;;;;;;;;;;5108340;28;20198;-75
2023/09/13 12:33:23;;;;;;;18.02;3.95;;;;;;;;;;5105179;28;20227;-75
2023/09/13 12:35:50;;;;;;;12.68;3.80;;;;;;;;;;5107958;28;20224;-75
2023/09/13 12:38:19;;;;;;;9.48;3.35;;;;;;;;;;5105095;28;20207;-75
2023/09/13 12:40:54;;;;;;;6.50;3.30;;;;;;;;;;5112862;28;20249;-75
2023/09/13 12:43:21;;;;;;;10.25;3.83;;;;;;;;;;5100091;28;20200;-75
2023/09/13 12:45:49;;;;;;;10.80;3.33;;;;;;;;;;5099893;28;20207;-75
2023/09/13 12:48:15;;;;;;;16.30;4.82;;;;;;;;;;5112526;28;20721;-75
2023/09/13 12:50:43;;;;;;;20.02;4.32;;;;;;;;;;5113581;28;20557;-75
2023/09/13 12:53:09;;;;;;;24.20;5.25;;;;;;;;;;5098721;28;20693;-75
2023/09/13 12:55:38;;;;;;;12.35;4.28;;;;;;;;;;5113057;28;20199;-75
2023/09/13 12:58:06;;;;;;;12.98;4.28;;;;;;;;;;5097659;28;20792;-75
2023/09/13 13:00:34;;;;;;;20.20;4.65;;;;;;;;;;5101191;28;20196;-75
2023/09/13 13:03:00;;;;;;;13.88;4.05;;;;;;;;;;5097715;28;20196;-75
2023/09/13 13:05:27;;;;;;;14.32;3.67;;;;;;;;;;5092725;28;20751;-75
2023/09/13 13:08:04;;;;;;;13.23;4.68;;;;;;;;;;5105698;28;20202;-75
2023/09/13 13:10:30;;;;;;;15.68;4.70;;;;;;;;;;5092420;28;20199;-75
2023/09/13 13:12:57;;;;;;;17.55;4.93;;;;;;;;;;5106778;28;20223;-75
2023/09/13 13:15:32;;;;;;;9.63;4.40;;;;;;;;;;5092478;28;20220;-75
2023/09/13 13:17:59;;;;;;;15.10;5.30;;;;;;;;;;5105895;28;20200;-75
2023/09/13 13:20:26;;;;;;;9.27;5.28;;;;;;;;;;5092639;28;20211;-75
2023/09/13 13:22:53;;;;;;;14.85;5.97;;;;;;;;;;5110473;28;20203;-75
2023/09/13 13:25:21;;;;;;;21.58;6.35;;;;;;;;;;5100559;28;20661;-75
2023/09/13 13:27:48;;;;;;;17.15;4.90;;;;;;;;;;5091913;28;20284;-75
2023/09/13 13:30:15;;;;;;;19.70;5.72;;;;;;;;;;5091870;28;20250;-75
2023/09/13 13:32:43;;;;;;;15.35;6.95;;;;;;;;;;5098319;28;20199;-75
2023/09/13 13:35:10;;;;;;;12.52;5.85;;;;;;;;;;5098864;28;20713;-75
2023/09/13 13:37:36;;;;;;;15.45;5.95;;;;;;;;;;5104951;28;20205;-75
2023/09/13 13:40:04;;;;;;;10.82;4.38;;;;;;;;;;5104652;28;20203;-75
2023/09/13 13:42:30;;;;;;;14.95;4.85;;;;;;;;;;5091928;28;20204;-75
2023/09/13 13:44:57;;;;;;;14.15;3.83;;;;;;;;;;5104974;28;20210;-75
2023/09/13 13:47:24;;;;;;;12.45;5.03;;;;;;;;;;5098561;28;20212;-75
2023/09/13 13:49:52;;;;;;;13.40;5.10;;;;;;;;;;5098352;28;20671;-75
2023/09/13 13:52:19;;;;;;;16.38;4.78;;;;;;;;;;5091653;28;20207;-75
2023/09/13 13:54:45;;;;;;;12.05;4.65;;;;;;;;;;5091759;28;20235;-75
2023/09/13 13:57:13;;;;;;;9.50;4.32;;;;;;;;;;5111733;28;20206;-75
2023/09/13 13:59:41;;;;;;;13.35;3.97;;;;;;;;;;5097683;28;20286;-75
2023/09/13 14:02:08;;;;;;;16.08;4.70;;;;;;;;;;5098796;28;20287;-75
2023/09/13 14:04:35;;;;;;;14.98;6.10;;;;;;;;;;5110353;28;20204;-75
2023/09/13 14:07:03;;;;;;;17.75;4.65;;;;;;;;;;5096827;28;20199;-75
2023/09/13 14:09:31;;;;;;;14.55;3.78;;;;;;;;;;5097961;28;20219;-75
2023/09/13 14:11:57;;;;;;;21.25;5.68;;;;;;;;;;5111514;28;20308;-75
2023/09/13 14:14:24;;;;;;;10.30;4.10;;;;;;;;;;5091774;28;20228;-74
2023/09/13 14:16:53;;;;;;;13.32;4.45;;;;;;;;;;5090985;28;20207;-75
2023/09/13 14:19:20;;;;;;;20.25;4.60;;;;;;;;;;5095922;28;20204;-75
2023/09/13 14:21:47;;;;;;;10.75;3.50;;;;;;;;;;5100709;28;20701;-75
2023/09/13 14:24:15;;;;;;;15.00;4.00;;;;;;;;;;5110699;28;20709;-75
2023/09/13 14:26:43;;;;;;;17.00;4.38;;;;;;;;;;5101314;28;20260;-75
2023/09/13 14:29:12;;;;;;;15.32;4.55;;;;;;;;;;5095278;28;20777;-74
2023/09/13 14:31:39;;;;;;;9.30;3.80;;;;;;;;;;5109704;28;20223;-75
2023/09/13 14:34:06;;;;;;;14.35;4.57;;;;;;;;;;5098889;28;20223;-75
2023/09/13 14:36:36;;;;;;;10.30;4.15;;;;;;;;;;5096432;28;20590;-75
2023/09/13 14:39:04;;;;;;;18.80;4.65;;;;;;;;;;5103022;28;20193;-75
2023/09/13 14:41:34;;;;;;;16.27;4.45;;;;;;;;;;5104187;28;20203;-75
2023/09/13 14:44:01;;;;;;;13.63;3.30;;;;;;;;;;5099634;28;20569;-75
2023/09/13 14:46:27;;;;;;;13.82;4.07;;;;;;;;;;5110624;28;20199;-75